sensor_id;sensor_type;location;lat;lon;timestamp;P1;durP1;ratioP1;P2;durP2;ratioP2
55800;SDS011;41730;51.960;20.158;2023-05-14T00:00:07;16.70;;;10.50;;
55800;SDS011;41730;51.960;20.158;2023-05-14T00:02:38;19.40;;;10.80;;
55800;SDS011;41730;51.960;20.158;2023-05-14T00:05:08;19.80;;;11.10;;
55800;SDS011;41730;51.960;20.158;2023-05-14T00:07:36;21.10;;;11.60;;
55800;SDS011;41730;51.960;20.158;2023-05-14T00:10:06;17.30;;;10.50;;
55800;SDS011;41730;51.960;20.158;2023-05-14T00:12:36;17.70;;;10.70;;
55800;SDS011;41730;51.960;20.158;2023-05-14T00:15:06;22.20;;;11.30;;
55800;SDS011;41730;51.960;20.158;2023-05-14T00:17:36;19.30;;;11.30;;
55800;SDS011;41730;51.960;20.158;2023-05-14T00:20:06;16.40;;;11.10;;
55800;SDS011;41730;51.960;20.158;2023-05-14T00:22:37;16.10;;;10.70;;
55800;SDS011;41730;51.960;20.158;2023-05-14T00:25:07;17.50;;;10.20;;
55800;SDS011;41730;51.960;20.158;2023-05-14T00:27:36;18.00;;;11.00;;
55800;SDS011;41730;51.960;20.158;2023-05-14T00:30:06;17.70;;;11.60;;
55800;SDS011;41730;51.960;20.158;2023-05-14T00:32:35;19.10;;;11.20;;
55800;SDS011;41730;51.960;20.158;2023-05-14T00:35:05;17.50;;;11.20;;
55800;SDS011;41730;51.960;20.158;2023-05-14T00:37:34;16.70;;;10.40;;
55800;SDS011;41730;51.960;20.158;2023-05-14T00:40:04;18.40;;;10.40;;
55800;SDS011;41730;51.960;20.158;2023-05-14T00:42:35;16.00;;;10.30;;
55800;SDS011;41730;51.960;20.158;2023-05-14T00:45:05;17.30;;;10.20;;
55800;SDS011;41730;51.960;20.158;2023-05-14T00:47:35;18.60;;;9.80;;
55800;SDS011;41730;51.960;20.158;2023-05-14T00:50:06;18.20;;;10.80;;
55800;SDS011;41730;51.960;20.158;2023-05-14T00:52:37;20.80;;;10.80;;
55800;SDS011;41730;51.960;20.158;2023-05-14T00:55:07;16.50;;;10.00;;
55800;SDS011;41730;51.960;20.158;2023-05-14T00:57:42;17.50;;;11.10;;
55800;SDS011;41730;51.960;20.158;2023-05-14T01:00:11;18.60;;;10.60;;
55800;SDS011;41730;51.960;20.158;2023-05-14T01:02:41;21.90;;;11.80;;
55800;SDS011;41730;51.960;20.158;2023-05-14T01:05:10;18.40;;;11.20;;
55800;SDS011;41730;51.960;20.158;2023-05-14T01:07:41;16.90;;;10.90;;
55800;SDS011;41730;51.960;20.158;2023-05-14T01:10:22;18.00;;;10.80;;
55800;SDS011;41730;51.960;20.158;2023-05-14T01:12:56;16.80;;;10.40;;
55800;SDS011;41730;51.960;20.158;2023-05-14T01:15:30;15.50;;;10.30;;
55800;SDS011;41730;51.960;20.158;2023-05-14T01:18:03;16.50;;;9.60;;
55800;SDS011;41730;51.960;20.158;2023-05-14T01:20:34;17.20;;;10.40;;
55800;SDS011;41730;51.960;20.158;2023-05-14T01:23:03;17.60;;;10.60;;
55800;SDS011;41730;51.960;20.158;2023-05-14T01:25:32;14.50;;;9.70;;
55800;SDS011;41730;51.960;20.158;2023-05-14T01:28:05;20.00;;;12.70;;
55800;SDS011;41730;51.960;20.158;2023-05-14T01:30:41;17.80;;;10.60;;
55800;SDS011;41730;51.960;20.158;2023-05-14T01:33:15;17.50;;;11.20;;
55800;SDS011;41730;51.960;20.158;2023-05-14T01:35:45;17.40;;;11.20;;
55800;SDS011;41730;51.960;20.158;2023-05-14T01:38:15;21.30;;;12.60;;
55800;SDS011;41730;51.960;20.158;2023-05-14T01:40:46;23.00;;;12.80;;
55800;SDS011;41730;51.960;20.158;2023-05-14T01:43:16;27.10;;;14.10;;
55800;SDS011;41730;51.960;20.158;2023-05-14T01:45:47;17.70;;;12.20;;
55800;SDS011;41730;51.960;20.158;2023-05-14T01:48:16;19.30;;;11.30;;
55800;SDS011;41730;51.960;20.158;2023-05-14T01:50:45;16.90;;;10.70;;
55800;SDS011;41730;51.960;20.158;2023-05-14T01:53:13;17.30;;;11.30;;
55800;SDS011;41730;51.960;20.158;2023-05-14T01:55:42;15.40;;;10.50;;
55800;SDS011;41730;51.960;20.158;2023-05-14T01:58:11;15.50;;;9.80;;
55800;SDS011;41730;51.960;20.158;2023-05-14T02:00:40;16.20;;;10.20;;
55800;SDS011;41730;51.960;20.158;2023-05-14T02:03:08;16.90;;;10.90;;
55800;SDS011;41730;51.960;20.158;2023-05-14T02:05:37;17.10;;;11.10;;
55800;SDS011;41730;51.960;20.158;2023-05-14T02:08:06;17.50;;;11.70;;
55800;SDS011;41730;51.960;20.158;2023-05-14T02:10:34;19.80;;;11.90;;
55800;SDS011;41730;51.960;20.158;2023-05-14T02:13:03;19.30;;;11.80;;
55800;SDS011;41730;51.960;20.158;2023-05-14T02:15:32;15.90;;;10.80;;
55800;SDS011;41730;51.960;20.158;2023-05-14T02:18:01;18.20;;;11.10;;
55800;SDS011;41730;51.960;20.158;2023-05-14T02:20:30;14.80;;;10.40;;
55800;SDS011;41730;51.960;20.158;2023-05-14T02:22:58;20.30;;;11.10;;
55800;SDS011;41730;51.960;20.158;2023-05-14T02:25:27;16.10;;;10.70;;
55800;SDS011;41730;51.960;20.158;2023-05-14T02:27:56;17.60;;;10.60;;
55800;SDS011;41730;51.960;20.158;2023-05-14T02:30:25;19.20;;;11.00;;
55800;SDS011;41730;51.960;20.158;2023-05-14T02:32:54;15.20;;;11.10;;
55800;SDS011;41730;51.960;20.158;2023-05-14T02:35:23;17.40;;;11.10;;
55800;SDS011;41730;51.960;20.158;2023-05-14T02:37:51;17.20;;;10.00;;
55800;SDS011;41730;51.960;20.158;2023-05-14T02:40:20;20.40;;;12.40;;
55800;SDS011;41730;51.960;20.158;2023-05-14T02:42:49;22.10;;;13.10;;
55800;SDS011;41730;51.960;20.158;2023-05-14T02:45:18;23.60;;;13.40;;
55800;SDS011;41730;51.960;20.158;2023-05-14T02:47:47;19.50;;;12.40;;
55800;SDS011;41730;51.960;20.158;2023-05-14T02:50:16;20.30;;;13.20;;
55800;SDS011;41730;51.960;20.158;2023-05-14T02:52:45;23.10;;;13.70;;
55800;SDS011;41730;51.960;20.158;2023-05-14T02:55:14;22.70;;;13.70;;
55800;SDS011;41730;51.960;20.158;2023-05-14T02:57:42;18.40;;;12.10;;
55800;SDS011;41730;51.960;20.158;2023-05-14T03:00:12;20.90;;;13.50;;
55800;SDS011;41730;51.960;20.158;2023-05-14T03:02:43;21.60;;;14.00;;
55800;SDS011;41730;51.960;20.158;2023-05-14T03:05:13;19.70;;;12.20;;
55800;SDS011;41730;51.960;20.158;2023-05-14T03:07:42;19.10;;;12.90;;
55800;SDS011;41730;51.960;20.158;2023-05-14T03:10:11;25.00;;;13.00;;
55800;SDS011;41730;51.960;20.158;2023-05-14T03:12:40;18.20;;;11.80;;
55800;SDS011;41730;51.960;20.158;2023-05-14T03:15:10;17.20;;;11.20;;
55800;SDS011;41730;51.960;20.158;2023-05-14T03:17:39;19.30;;;11.80;;
55800;SDS011;41730;51.960;20.158;2023-05-14T03:20:08;19.00;;;12.40;;
55800;SDS011;41730;51.960;20.158;2023-05-14T03:22:39;19.90;;;12.30;;
55800;SDS011;41730;51.960;20.158;2023-05-14T03:25:10;22.40;;;13.00;;
55800;SDS011;41730;51.960;20.158;2023-05-14T03:27:47;21.00;;;12.80;;
55800;SDS011;41730;51.960;20.158;2023-05-14T03:30:28;16.90;;;12.50;;
55800;SDS011;41730;51.960;20.158;2023-05-14T03:33:07;20.70;;;12.20;;
55800;SDS011;41730;51.960;20.158;2023-05-14T03:35:44;18.90;;;11.40;;
55800;SDS011;41730;51.960;20.158;2023-05-14T03:38:13;20.40;;;12.70;;
55800;SDS011;41730;51.960;20.158;2023-05-14T03:40:42;21.10;;;12.10;;
55800;SDS011;41730;51.960;20.158;2023-05-14T03:43:11;21.50;;;11.60;;
55800;SDS011;41730;51.960;20.158;2023-05-14T03:45:40;17.00;;;11.40;;
55800;SDS011;41730;51.960;20.158;2023-05-14T03:48:09;16.00;;;11.10;;
55800;SDS011;41730;51.960;20.158;2023-05-14T03:50:38;16.80;;;11.00;;
55800;SDS011;41730;51.960;20.158;2023-05-14T03:53:06;16.80;;;10.90;;
55800;SDS011;41730;51.960;20.158;2023-05-14T03:55:36;19.10;;;12.60;;
55800;SDS011;41730;51.960;20.158;2023-05-14T03:58:04;15.60;;;11.40;;
55800;SDS011;41730;51.960;20.158;2023-05-14T04:00:40;19.50;;;11.60;;
55800;SDS011;41730;51.960;20.158;2023-05-14T04:03:10;17.80;;;11.10;;
55800;SDS011;41730;51.960;20.158;2023-05-14T04:05:40;17.50;;;10.90;;
55800;SDS011;41730;51.960;20.158;2023-05-14T04:08:08;16.50;;;10.70;;
55800;SDS011;41730;51.960;20.158;2023-05-14T04:10:37;18.40;;;11.60;;
55800;SDS011;41730;51.960;20.158;2023-05-14T04:13:06;17.50;;;10.90;;
55800;SDS011;41730;51.960;20.158;2023-05-14T04:15:35;20.90;;;10.70;;
55800;SDS011;41730;51.960;20.158;2023-05-14T04:18:05;18.70;;;11.10;;
55800;SDS011;41730;51.960;20.158;2023-05-14T04:20:34;16.00;;;10.70;;
55800;SDS011;41730;51.960;20.158;2023-05-14T04:23:03;17.10;;;10.70;;
55800;SDS011;41730;51.960;20.158;2023-05-14T04:25:32;19.20;;;11.30;;
55800;SDS011;41730;51.960;20.158;2023-05-14T04:28:01;14.30;;;10.00;;
55800;SDS011;41730;51.960;20.158;2023-05-14T04:30:29;14.30;;;9.50;;
55800;SDS011;41730;51.960;20.158;2023-05-14T04:32:58;14.60;;;9.40;;
55800;SDS011;41730;51.960;20.158;2023-05-14T04:35:26;13.60;;;9.50;;
55800;SDS011;41730;51.960;20.158;2023-05-14T04:37:55;12.20;;;8.80;;
55800;SDS011;41730;51.960;20.158;2023-05-14T04:40:24;13.20;;;8.40;;
55800;SDS011;41730;51.960;20.158;2023-05-14T04:42:54;13.00;;;8.70;;
55800;SDS011;41730;51.960;20.158;2023-05-14T04:45:23;14.40;;;9.20;;
55800;SDS011;41730;51.960;20.158;2023-05-14T04:47:52;13.80;;;8.30;;
55800;SDS011;41730;51.960;20.158;2023-05-14T04:50:21;12.80;;;8.90;;
55800;SDS011;41730;51.960;20.158;2023-05-14T04:52:50;14.10;;;8.90;;
55800;SDS011;41730;51.960;20.158;2023-05-14T04:55:19;16.70;;;9.10;;
55800;SDS011;41730;51.960;20.158;2023-05-14T04:57:48;13.10;;;8.40;;
55800;SDS011;41730;51.960;20.158;2023-05-14T05:00:17;12.70;;;8.50;;
55800;SDS011;41730;51.960;20.158;2023-05-14T05:02:47;12.80;;;8.90;;
55800;SDS011;41730;51.960;20.158;2023-05-14T05:05:16;14.80;;;8.80;;
55800;SDS011;41730;51.960;20.158;2023-05-14T05:07:45;11.70;;;8.90;;
55800;SDS011;41730;51.960;20.158;2023-05-14T05:10:14;13.00;;;8.40;;
55800;SDS011;41730;51.960;20.158;2023-05-14T05:12:43;9.90;;;7.60;;
55800;SDS011;41730;51.960;20.158;2023-05-14T05:15:12;11.40;;;8.00;;
55800;SDS011;41730;51.960;20.158;2023-05-14T05:17:41;13.00;;;7.90;;
55800;SDS011;41730;51.960;20.158;2023-05-14T05:20:11;10.80;;;8.10;;
55800;SDS011;41730;51.960;20.158;2023-05-14T05:22:40;12.40;;;7.90;;
55800;SDS011;41730;51.960;20.158;2023-05-14T05:25:09;11.90;;;7.90;;
55800;SDS011;41730;51.960;20.158;2023-05-14T05:27:38;10.30;;;7.70;;
55800;SDS011;41730;51.960;20.158;2023-05-14T05:30:08;10.90;;;7.00;;
55800;SDS011;41730;51.960;20.158;2023-05-14T05:32:39;11.10;;;8.30;;
55800;SDS011;41730;51.960;20.158;2023-05-14T05:35:09;11.20;;;8.70;;
55800;SDS011;41730;51.960;20.158;2023-05-14T05:37:38;12.70;;;9.90;;
55800;SDS011;41730;51.960;20.158;2023-05-14T05:40:08;11.60;;;8.70;;
55800;SDS011;41730;51.960;20.158;2023-05-14T05:42:39;13.30;;;9.20;;
55800;SDS011;41730;51.960;20.158;2023-05-14T05:45:09;13.80;;;9.30;;
55800;SDS011;41730;51.960;20.158;2023-05-14T05:47:38;14.20;;;9.10;;
55800;SDS011;41730;51.960;20.158;2023-05-14T05:50:08;10.30;;;8.60;;
55800;SDS011;41730;51.960;20.158;2023-05-14T05:52:37;10.30;;;7.50;;
55800;SDS011;41730;51.960;20.158;2023-05-14T05:55:08;12.50;;;9.80;;
55800;SDS011;41730;51.960;20.158;2023-05-14T05:57:37;11.40;;;8.60;;
55800;SDS011;41730;51.960;20.158;2023-05-14T06:00:08;10.90;;;8.50;;
55800;SDS011;41730;51.960;20.158;2023-05-14T06:02:39;9.50;;;7.40;;
55800;SDS011;41730;51.960;20.158;2023-05-14T06:05:09;8.60;;;6.80;;
55800;SDS011;41730;51.960;20.158;2023-05-14T06:07:38;10.60;;;6.80;;
55800;SDS011;41730;51.960;20.158;2023-05-14T06:10:08;10.60;;;6.70;;
55800;SDS011;41730;51.960;20.158;2023-05-14T06:12:37;9.10;;;5.90;;
55800;SDS011;41730;51.960;20.158;2023-05-14T06:15:07;11.30;;;6.80;;
55800;SDS011;41730;51.960;20.158;2023-05-14T06:17:38;7.70;;;5.80;;
55800;SDS011;41730;51.960;20.158;2023-05-14T06:20:08;9.70;;;6.00;;
55800;SDS011;41730;51.960;20.158;2023-05-14T06:22:38;8.60;;;5.60;;
55800;SDS011;41730;51.960;20.158;2023-05-14T06:25:09;9.40;;;6.00;;
55800;SDS011;41730;51.960;20.158;2023-05-14T06:27:38;9.90;;;6.60;;
55800;SDS011;41730;51.960;20.158;2023-05-14T06:30:09;8.40;;;4.80;;
55800;SDS011;41730;51.960;20.158;2023-05-14T06:32:40;10.30;;;5.20;;
55800;SDS011;41730;51.960;20.158;2023-05-14T06:35:09;8.70;;;4.70;;
55800;SDS011;41730;51.960;20.158;2023-05-14T06:37:38;6.80;;;4.80;;
55800;SDS011;41730;51.960;20.158;2023-05-14T06:40:07;6.30;;;4.60;;
55800;SDS011;41730;51.960;20.158;2023-05-14T06:42:38;7.80;;;4.40;;
55800;SDS011;41730;51.960;20.158;2023-05-14T06:45:08;6.40;;;4.10;;
55800;SDS011;41730;51.960;20.158;2023-05-14T06:47:37;8.70;;;4.60;;
55800;SDS011;41730;51.960;20.158;2023-05-14T06:50:07;5.30;;;2.70;;
55800;SDS011;41730;51.960;20.158;2023-05-14T06:52:38;4.70;;;2.70;;
55800;SDS011;41730;51.960;20.158;2023-05-14T06:55:08;3.90;;;2.80;;
55800;SDS011;41730;51.960;20.158;2023-05-14T06:57:37;5.30;;;2.90;;
55800;SDS011;41730;51.960;20.158;2023-05-14T07:00:08;5.50;;;2.90;;
55800;SDS011;41730;51.960;20.158;2023-05-14T07:02:38;5.00;;;3.10;;
55800;SDS011;41730;51.960;20.158;2023-05-14T07:05:09;7.30;;;3.00;;
55800;SDS011;41730;51.960;20.158;2023-05-14T07:07:38;7.80;;;2.90;;
55800;SDS011;41730;51.960;20.158;2023-05-14T07:10:07;5.90;;;3.20;;
55800;SDS011;41730;51.960;20.158;2023-05-14T07:12:37;6.00;;;2.80;;
55800;SDS011;41730;51.960;20.158;2023-05-14T07:15:07;5.70;;;2.80;;
55800;SDS011;41730;51.960;20.158;2023-05-14T07:17:37;7.00;;;3.30;;
55800;SDS011;41730;51.960;20.158;2023-05-14T07:20:07;6.50;;;3.20;;
55800;SDS011;41730;51.960;20.158;2023-05-14T07:22:37;7.40;;;3.20;;
55800;SDS011;41730;51.960;20.158;2023-05-14T07:25:07;6.30;;;3.00;;
55800;SDS011;41730;51.960;20.158;2023-05-14T07:27:37;5.50;;;2.70;;
55800;SDS011;41730;51.960;20.158;2023-05-14T07:30:06;5.60;;;2.80;;
55800;SDS011;41730;51.960;20.158;2023-05-14T07:32:36;6.30;;;3.60;;
55800;SDS011;41730;51.960;20.158;2023-05-14T07:35:08;13.80;;;6.40;;
55800;SDS011;41730;51.960;20.158;2023-05-14T07:37:38;4.60;;;2.90;;
55800;SDS011;41730;51.960;20.158;2023-05-14T07:40:08;9.50;;;3.40;;
55800;SDS011;41730;51.960;20.158;2023-05-14T07:42:37;6.60;;;2.90;;
55800;SDS011;41730;51.960;20.158;2023-05-14T07:45:07;4.90;;;2.60;;
55800;SDS011;41730;51.960;20.158;2023-05-14T07:47:37;5.10;;;2.90;;
55800;SDS011;41730;51.960;20.158;2023-05-14T07:50:08;4.90;;;2.70;;
55800;SDS011;41730;51.960;20.158;2023-05-14T07:52:38;5.90;;;2.70;;
55800;SDS011;41730;51.960;20.158;2023-05-14T07:55:08;4.20;;;2.40;;
55800;SDS011;41730;51.960;20.158;2023-05-14T07:57:39;6.60;;;2.70;;
55800;SDS011;41730;51.960;20.158;2023-05-14T08:00:10;7.30;;;2.90;;
55800;SDS011;41730;51.960;20.158;2023-05-14T08:02:40;4.00;;;2.70;;
55800;SDS011;41730;51.960;20.158;2023-05-14T08:05:10;8.70;;;2.80;;
55800;SDS011;41730;51.960;20.158;2023-05-14T08:07:38;7.50;;;2.50;;
55800;SDS011;41730;51.960;20.158;2023-05-14T08:10:08;6.60;;;3.00;;
55800;SDS011;41730;51.960;20.158;2023-05-14T08:12:37;6.10;;;2.90;;
55800;SDS011;41730;51.960;20.158;2023-05-14T08:15:07;7.20;;;2.90;;
55800;SDS011;41730;51.960;20.158;2023-05-14T08:17:37;3.90;;;2.60;;
55800;SDS011;41730;51.960;20.158;2023-05-14T08:20:07;4.80;;;2.70;;
55800;SDS011;41730;51.960;20.158;2023-05-14T08:22:37;5.30;;;3.10;;
55800;SDS011;41730;51.960;20.158;2023-05-14T08:25:07;7.50;;;2.90;;
55800;SDS011;41730;51.960;20.158;2023-05-14T08:27:36;7.60;;;3.20;;
55800;SDS011;41730;51.960;20.158;2023-05-14T08:30:06;7.50;;;3.20;;
55800;SDS011;41730;51.960;20.158;2023-05-14T08:32:39;5.10;;;3.00;;
55800;SDS011;41730;51.960;20.158;2023-05-14T08:35:11;5.60;;;3.20;;
55800;SDS011;41730;51.960;20.158;2023-05-14T08:37:40;7.10;;;3.00;;
55800;SDS011;41730;51.960;20.158;2023-05-14T08:40:09;5.20;;;3.10;;
55800;SDS011;41730;51.960;20.158;2023-05-14T08:42:39;9.50;;;3.20;;
55800;SDS011;41730;51.960;20.158;2023-05-14T08:45:14;7.40;;;3.10;;
55800;SDS011;41730;51.960;20.158;2023-05-14T08:47:46;15.70;;;3.80;;
55800;SDS011;41730;51.960;20.158;2023-05-14T08:50:17;9.10;;;3.30;;
55800;SDS011;41730;51.960;20.158;2023-05-14T08:52:50;6.60;;;2.90;;
55800;SDS011;41730;51.960;20.158;2023-05-14T08:55:19;6.90;;;3.20;;
55800;SDS011;41730;51.960;20.158;2023-05-14T08:57:48;5.30;;;2.80;;
55800;SDS011;41730;51.960;20.158;2023-05-14T09:00:18;7.70;;;3.00;;
55800;SDS011;41730;51.960;20.158;2023-05-14T09:02:49;6.80;;;2.90;;
55800;SDS011;41730;51.960;20.158;2023-05-14T09:05:19;8.10;;;3.30;;
55800;SDS011;41730;51.960;20.158;2023-05-14T09:07:50;7.50;;;3.30;;
55800;SDS011;41730;51.960;20.158;2023-05-14T09:10:19;7.80;;;2.90;;
55800;SDS011;41730;51.960;20.158;2023-05-14T09:12:49;7.50;;;2.90;;
55800;SDS011;41730;51.960;20.158;2023-05-14T09:15:18;6.70;;;3.10;;
55800;SDS011;41730;51.960;20.158;2023-05-14T09:17:48;7.30;;;2.70;;
55800;SDS011;41730;51.960;20.158;2023-05-14T09:20:17;5.70;;;3.00;;
55800;SDS011;41730;51.960;20.158;2023-05-14T09:22:47;5.90;;;2.60;;
55800;SDS011;41730;51.960;20.158;2023-05-14T09:25:25;6.70;;;2.90;;
55800;SDS011;41730;51.960;20.158;2023-05-14T09:27:54;6.50;;;2.90;;
55800;SDS011;41730;51.960;20.158;2023-05-14T09:30:25;6.80;;;2.50;;
55800;SDS011;41730;51.960;20.158;2023-05-14T09:32:54;9.30;;;2.60;;
55800;SDS011;41730;51.960;20.158;2023-05-14T09:35:23;6.00;;;2.60;;
55800;SDS011;41730;51.960;20.158;2023-05-14T09:37:53;4.90;;;2.70;;
55800;SDS011;41730;51.960;20.158;2023-05-14T09:40:22;9.20;;;2.80;;
55800;SDS011;41730;51.960;20.158;2023-05-14T09:42:51;6.10;;;2.70;;
55800;SDS011;41730;51.960;20.158;2023-05-14T09:45:21;7.10;;;2.50;;
55800;SDS011;41730;51.960;20.158;2023-05-14T09:47:50;7.70;;;2.50;;
55800;SDS011;41730;51.960;20.158;2023-05-14T09:50:19;7.70;;;2.70;;
55800;SDS011;41730;51.960;20.158;2023-05-14T09:52:48;7.90;;;2.80;;
55800;SDS011;41730;51.960;20.158;2023-05-14T09:55:17;8.70;;;2.70;;
55800;SDS011;41730;51.960;20.158;2023-05-14T09:57:48;12.00;;;3.00;;
55800;SDS011;41730;51.960;20.158;2023-05-14T10:00:17;5.40;;;2.60;;
55800;SDS011;41730;51.960;20.158;2023-05-14T10:02:48;3.90;;;2.30;;
55800;SDS011;41730;51.960;20.158;2023-05-14T10:05:20;10.10;;;2.80;;
55800;SDS011;41730;51.960;20.158;2023-05-14T10:07:55;6.90;;;2.60;;
55800;SDS011;41730;51.960;20.158;2023-05-14T10:10:25;7.30;;;2.50;;
55800;SDS011;41730;51.960;20.158;2023-05-14T10:12:57;7.90;;;2.70;;
55800;SDS011;41730;51.960;20.158;2023-05-14T10:15:31;5.60;;;2.50;;
55800;SDS011;41730;51.960;20.158;2023-05-14T10:20:37;6.80;;;2.70;;
55800;SDS011;41730;51.960;20.158;2023-05-14T10:23:14;7.40;;;2.50;;
55800;SDS011;41730;51.960;20.158;2023-05-14T10:25:44;6.90;;;2.80;;
55800;SDS011;41730;51.960;20.158;2023-05-14T10:28:13;6.70;;;2.20;;
55800;SDS011;41730;51.960;20.158;2023-05-14T10:30:43;4.00;;;2.30;;
55800;SDS011;41730;51.960;20.158;2023-05-14T10:33:14;3.80;;;2.60;;
55800;SDS011;41730;51.960;20.158;2023-05-14T10:35:56;5.20;;;2.40;;
55800;SDS011;41730;51.960;20.158;2023-05-14T10:38:27;7.80;;;2.70;;
55800;SDS011;41730;51.960;20.158;2023-05-14T10:40:59;5.60;;;2.30;;
55800;SDS011;41730;51.960;20.158;2023-05-14T10:43:29;6.10;;;2.40;;
55800;SDS011;41730;51.960;20.158;2023-05-14T10:46:04;4.70;;;2.50;;
55800;SDS011;41730;51.960;20.158;2023-05-14T10:48:35;3.60;;;2.30;;
55800;SDS011;41730;51.960;20.158;2023-05-14T10:51:07;5.10;;;2.50;;
55800;SDS011;41730;51.960;20.158;2023-05-14T10:53:38;6.90;;;2.40;;
55800;SDS011;41730;51.960;20.158;2023-05-14T10:56:08;4.50;;;2.30;;
55800;SDS011;41730;51.960;20.158;2023-05-14T10:58:39;3.90;;;2.20;;
55800;SDS011;41730;51.960;20.158;2023-05-14T11:01:11;5.00;;;2.40;;
55800;SDS011;41730;51.960;20.158;2023-05-14T11:03:41;5.20;;;2.40;;
55800;SDS011;41730;51.960;20.158;2023-05-14T11:06:14;4.30;;;2.30;;
55800;SDS011;41730;51.960;20.158;2023-05-14T11:08:43;4.20;;;2.50;;
55800;SDS011;41730;51.960;20.158;2023-05-14T11:11:13;5.60;;;2.60;;
55800;SDS011;41730;51.960;20.158;2023-05-14T11:13:42;4.60;;;2.50;;
55800;SDS011;41730;51.960;20.158;2023-05-14T11:16:11;6.90;;;2.60;;
55800;SDS011;41730;51.960;20.158;2023-05-14T11:18:47;6.10;;;2.40;;
55800;SDS011;41730;51.960;20.158;2023-05-14T11:21:29;5.20;;;2.40;;
55800;SDS011;41730;51.960;20.158;2023-05-14T11:23:59;6.30;;;2.70;;
55800;SDS011;41730;51.960;20.158;2023-05-14T11:26:29;5.80;;;2.40;;
55800;SDS011;41730;51.960;20.158;2023-05-14T11:28:59;4.80;;;2.40;;
55800;SDS011;41730;51.960;20.158;2023-05-14T11:31:28;5.80;;;2.50;;
55800;SDS011;41730;51.960;20.158;2023-05-14T11:33:57;17.30;;;2.70;;
55800;SDS011;41730;51.960;20.158;2023-05-14T11:36:26;6.80;;;2.60;;
55800;SDS011;41730;51.960;20.158;2023-05-14T11:38:55;4.10;;;2.30;;
55800;SDS011;41730;51.960;20.158;2023-05-14T11:41:24;4.10;;;2.40;;
55800;SDS011;41730;51.960;20.158;2023-05-14T11:43:54;4.30;;;2.30;;
55800;SDS011;41730;51.960;20.158;2023-05-14T11:46:23;3.80;;;2.60;;
55800;SDS011;41730;51.960;20.158;2023-05-14T11:48:52;5.50;;;2.80;;
55800;SDS011;41730;51.960;20.158;2023-05-14T11:51:21;4.10;;;2.40;;
55800;SDS011;41730;51.960;20.158;2023-05-14T11:53:50;9.00;;;2.40;;
55800;SDS011;41730;51.960;20.158;2023-05-14T11:56:20;6.40;;;2.80;;
55800;SDS011;41730;51.960;20.158;2023-05-14T11:58:54;6.60;;;2.70;;
55800;SDS011;41730;51.960;20.158;2023-05-14T12:01:23;6.60;;;2.60;;
55800;SDS011;41730;51.960;20.158;2023-05-14T12:03:54;5.10;;;2.30;;
55800;SDS011;41730;51.960;20.158;2023-05-14T12:06:29;10.00;;;2.90;;
55800;SDS011;41730;51.960;20.158;2023-05-14T12:08:58;5.40;;;2.70;;
55800;SDS011;41730;51.960;20.158;2023-05-14T12:11:30;5.40;;;2.70;;
55800;SDS011;41730;51.960;20.158;2023-05-14T12:13:59;4.30;;;2.40;;
55800;SDS011;41730;51.960;20.158;2023-05-14T12:16:36;4.20;;;2.30;;
55800;SDS011;41730;51.960;20.158;2023-05-14T12:19:08;8.80;;;2.70;;
55800;SDS011;41730;51.960;20.158;2023-05-14T12:21:38;3.20;;;2.40;;
55800;SDS011;41730;51.960;20.158;2023-05-14T12:24:09;5.90;;;2.70;;
55800;SDS011;41730;51.960;20.158;2023-05-14T12:26:40;4.20;;;2.20;;
55800;SDS011;41730;51.960;20.158;2023-05-14T12:29:12;4.80;;;2.20;;
55800;SDS011;41730;51.960;20.158;2023-05-14T12:31:46;3.50;;;2.50;;
55800;SDS011;41730;51.960;20.158;2023-05-14T12:34:15;6.70;;;2.90;;
55800;SDS011;41730;51.960;20.158;2023-05-14T12:36:45;4.60;;;2.30;;
55800;SDS011;41730;51.960;20.158;2023-05-14T12:39:14;5.90;;;2.60;;
55800;SDS011;41730;51.960;20.158;2023-05-14T12:41:43;4.50;;;2.60;;
55800;SDS011;41730;51.960;20.158;2023-05-14T12:44:12;5.60;;;2.50;;
55800;SDS011;41730;51.960;20.158;2023-05-14T12:46:41;4.10;;;2.50;;
55800;SDS011;41730;51.960;20.158;2023-05-14T12:49:11;10.40;;;2.80;;
55800;SDS011;41730;51.960;20.158;2023-05-14T12:51:40;8.10;;;2.60;;
55800;SDS011;41730;51.960;20.158;2023-05-14T12:54:09;4.00;;;2.20;;
55800;SDS011;41730;51.960;20.158;2023-05-14T12:56:38;6.10;;;2.40;;
55800;SDS011;41730;51.960;20.158;2023-05-14T12:59:07;7.40;;;2.60;;
55800;SDS011;41730;51.960;20.158;2023-05-14T13:01:36;4.70;;;2.80;;
55800;SDS011;41730;51.960;20.158;2023-05-14T13:04:05;5.30;;;2.30;;
55800;SDS011;41730;51.960;20.158;2023-05-14T13:06:36;5.70;;;2.20;;
55800;SDS011;41730;51.960;20.158;2023-05-14T13:09:08;4.70;;;2.10;;
55800;SDS011;41730;51.960;20.158;2023-05-14T13:11:37;4.90;;;2.20;;
55800;SDS011;41730;51.960;20.158;2023-05-14T13:14:06;3.20;;;2.10;;
55800;SDS011;41730;51.960;20.158;2023-05-14T13:16:35;3.80;;;2.30;;
55800;SDS011;41730;51.960;20.158;2023-05-14T13:19:04;4.30;;;1.90;;
55800;SDS011;41730;51.960;20.158;2023-05-14T13:21:33;2.90;;;1.90;;
55800;SDS011;41730;51.960;20.158;2023-05-14T13:24:02;5.70;;;2.40;;
55800;SDS011;41730;51.960;20.158;2023-05-14T13:26:31;4.30;;;2.00;;
55800;SDS011;41730;51.960;20.158;2023-05-14T13:29:02;3.00;;;2.10;;
55800;SDS011;41730;51.960;20.158;2023-05-14T13:31:32;6.30;;;2.10;;
55800;SDS011;41730;51.960;20.158;2023-05-14T13:34:02;5.00;;;2.30;;
55800;SDS011;41730;51.960;20.158;2023-05-14T13:36:32;4.60;;;2.40;;
55800;SDS011;41730;51.960;20.158;2023-05-14T13:39:05;4.30;;;2.20;;
55800;SDS011;41730;51.960;20.158;2023-05-14T13:41:36;2.30;;;1.80;;
55800;SDS011;41730;51.960;20.158;2023-05-14T13:44:08;4.60;;;2.00;;
55800;SDS011;41730;51.960;20.158;2023-05-14T13:46:40;10.60;;;2.40;;
55800;SDS011;41730;51.960;20.158;2023-05-14T13:49:10;4.70;;;2.40;;
55800;SDS011;41730;51.960;20.158;2023-05-14T13:51:39;4.40;;;2.30;;
55800;SDS011;41730;51.960;20.158;2023-05-14T13:54:08;4.70;;;2.10;;
55800;SDS011;41730;51.960;20.158;2023-05-14T13:56:37;4.50;;;2.20;;
55800;SDS011;41730;51.960;20.158;2023-05-14T13:59:07;4.60;;;2.30;;
55800;SDS011;41730;51.960;20.158;2023-05-14T14:01:37;7.30;;;2.20;;
55800;SDS011;41730;51.960;20.158;2023-05-14T14:04:06;7.40;;;2.40;;
55800;SDS011;41730;51.960;20.158;2023-05-14T14:06:35;4.60;;;2.30;;
55800;SDS011;41730;51.960;20.158;2023-05-14T14:09:04;3.90;;;2.20;;
55800;SDS011;41730;51.960;20.158;2023-05-14T14:11:34;4.00;;;2.50;;
55800;SDS011;41730;51.960;20.158;2023-05-14T14:14:04;5.50;;;2.30;;
55800;SDS011;41730;51.960;20.158;2023-05-14T14:16:33;5.80;;;2.20;;
55800;SDS011;41730;51.960;20.158;2023-05-14T14:19:02;5.70;;;2.70;;
55800;SDS011;41730;51.960;20.158;2023-05-14T14:21:31;4.00;;;2.30;;
55800;SDS011;41730;51.960;20.158;2023-05-14T14:24:01;4.50;;;2.20;;
55800;SDS011;41730;51.960;20.158;2023-05-14T14:26:30;5.60;;;2.40;;
55800;SDS011;41730;51.960;20.158;2023-05-14T14:28:59;4.80;;;2.10;;
55800;SDS011;41730;51.960;20.158;2023-05-14T14:31:28;4.90;;;2.30;;
55800;SDS011;41730;51.960;20.158;2023-05-14T14:33:58;3.60;;;2.10;;
55800;SDS011;41730;51.960;20.158;2023-05-14T14:36:27;4.80;;;2.30;;
55800;SDS011;41730;51.960;20.158;2023-05-14T14:38:57;5.10;;;2.10;;
55800;SDS011;41730;51.960;20.158;2023-05-14T14:41:26;4.00;;;2.20;;
55800;SDS011;41730;51.960;20.158;2023-05-14T14:43:55;5.50;;;2.40;;